Impacts TAF Board INFO
FOR SITUATIONAL AWARENESS. NOT TO BE USED FOR FLIGHT PLANNING PURPOSES.
IDs:

KLGA - New York/La Guardia, NY, US

Issued at 0540 UTC 23 Apr 2018
Updated at 0754 UTC 23 Apr 2018
Potential Impact None Slight Moderate High
Time0751Z 23/08Z 23/09Z 23/10Z 23/11Z 23/12Z 23/13Z 23/14Z 23/15Z 23/16Z 23/17Z 23/18Z 23/19Z 23/20Z>>
Type OBS PRVL PRVL PRVL PRVL PRVL PRVL PRVL PRVL PRVL PRVL PRVL PRVL PRVL
VIS 10 >6 >6 >6 >6 >6 >6 >6 >6 >6 >6 >6 >6 >6
CIG -- -- -- -- -- -- -- -- -- -- -- -- -- --
Cover CLR SKC SKC SKC SKC SKC SKC SKC SKC SKC SKC SKC SKC SKC
FltCat VFR VFR VFR VFR VFR VFR VFR VFR VFR VFR VFR VFR VFR VFR
WX -- -- -- -- -- -- -- -- -- -- -- -- -- --
WDir VRB VRB VRB VRB VRB 50 50 50 50 50 50 150 150 150
WSpd 0 4 4 4 4 5 5 5 5 5 5 8 8 8
WGst -- -- -- -- -- -- -- -- -- -- -- -- -- --

Raw TAF
KLGA 230540Z 2306/2412 VRB04KT P6SM SKC
  FM231200 05005KT P6SM SKC
  FM231800 15008KT P6SM SKC
  FM240300 18004KT P6SM FEW250


Raw METAR
KLGA 230751Z 00000KT 10SM CLR 08/01 A3041 RMK AO2 SLP297 T00830006
KLGA 230651Z 00000KT 10SM CLR 09/00 A3040 RMK AO2 SLP293 T00940000
KLGA 230551Z 17003KT 10SM CLR 09/01 A3039 RMK AO2 SLP291 T00940006 10128 20094 50002
KLGA 230451Z 20003KT 10SM FEW250 10/00 A3040 RMK AO2 SLP293 T01000000 401830078

METAR Board
Radar Display
Forecast Discussion

FOR SITUATIONAL AWARENESS. NOT TO BE USED FOR FLIGHT PLANNING PURPOSES.